Time;durP1;ratioP1;P1;durP2;ratioP2;P2;SDS_P1;SDS_P2;PMS_P1;PMS_P2;Temp;Humidity;BMP_temperature;BMP_pressure;BME280_temperature;BME280_humidity;BME280_pressure;Samples;Min_cycle;Max_cycle;Signal;HPM_P1;HPM_P2
2021/12/04 00:01:48;;;;;;;0.80;0.70;;;;;;;;;;5026994;28;20788;-91
2021/12/04 00:04:20;;;;;;;0.80;0.80;;;;;;;;;;5010002;28;20580;-91
2021/12/04 00:06:46;;;;;;;2.07;1.80;;;;;;;;;;5027687;28;20438;-91
2021/12/04 00:09:15;;;;;;;0.80;0.70;;;;;;;;;;5030691;28;20589;-90
2021/12/04 00:11:51;;;;;;;0.90;0.80;;;;;;;;;;5030707;28;20430;-90
2021/12/04 00:14:17;;;;;;;0.80;0.80;;;;;;;;;;5032473;28;20434;-92
2021/12/04 00:16:43;;;;;;;0.80;0.80;;;;;;;;;;5036211;28;20520;-92
2021/12/04 00:19:09;;;;;;;3.13;3.03;;;;;;;;;;5028642;28;20941;-91
2021/12/04 00:21:34;;;;;;;4.00;2.40;;;;;;;;;;5032951;28;20446;-91
2021/12/04 00:24:00;;;;;;;0.80;0.80;;;;;;;;;;5016046;28;20442;-91
2021/12/04 00:26:26;;;;;;;0.80;0.70;;;;;;;;;;5031954;28;20442;-92
2021/12/04 00:28:52;;;;;;;1.17;1.03;;;;;;;;;;5033093;28;21179;-91
2021/12/04 00:31:18;;;;;;;1.80;1.67;;;;;;;;;;5032856;28;20924;-92
2021/12/04 00:33:46;;;;;;;1.27;0.90;;;;;;;;;;5032890;28;20977;-92
2021/12/04 00:36:38;;;;;;;0.80;0.70;;;;;;;;;;5034195;28;20434;-91
2021/12/04 00:50:04;;;;;;;1.00;0.90;;;;;;;;;;5033300;28;20527;-92
2021/12/04 00:52:30;;;;;;;1.27;1.17;;;;;;;;;;5032435;28;20465;-93
2021/12/04 00:54:56;;;;;;;2.50;2.40;;;;;;;;;;5034512;28;20414;-92
2021/12/04 00:57:22;;;;;;;1.23;1.13;;;;;;;;;;5016559;28;20927;-92
2021/12/04 00:59:48;;;;;;;2.30;1.50;;;;;;;;;;5033922;28;20454;-92
2021/12/04 01:02:14;;;;;;;1.20;1.00;;;;;;;;;;5033697;28;20808;-91
2021/12/04 01:04:40;;;;;;;0.80;0.70;;;;;;;;;;5016357;28;20438;-91
2021/12/04 01:07:07;;;;;;;0.80;0.70;;;;;;;;;;5014147;28;20442;-92
2021/12/04 01:09:32;;;;;;;6.20;2.80;;;;;;;;;;5034071;28;20992;-92
2021/12/04 01:11:58;;;;;;;1.97;1.87;;;;;;;;;;5016482;28;20453;-92
2021/12/04 01:14:26;;;;;;;0.80;0.80;;;;;;;;;;5033767;28;20430;-93
2021/12/04 01:16:52;;;;;;;5.43;1.60;;;;;;;;;;5016265;28;20438;-92
2021/12/04 01:19:19;;;;;;;0.80;0.60;;;;;;;;;;5033189;28;20473;-92
2021/12/04 01:21:45;;;;;;;1.77;1.67;;;;;;;;;;5033850;28;20422;-92
2021/12/04 01:24:12;;;;;;;0.80;0.80;;;;;;;;;;5033880;28;20426;-91
2021/12/04 01:26:38;;;;;;;1.17;1.07;;;;;;;;;;5033198;28;20422;-92
2021/12/04 01:29:04;;;;;;;1.50;1.40;;;;;;;;;;5033508;28;20469;-93
2021/12/04 01:31:30;;;;;;;1.03;0.93;;;;;;;;;;5033447;28;20874;-93
2021/12/04 01:33:56;;;;;;;0.90;0.80;;;;;;;;;;5038397;28;20434;-91
2021/12/04 01:36:22;;;;;;;8.63;2.63;;;;;;;;;;5032746;28;20809;-92
2021/12/04 01:38:48;;;;;;;0.90;0.80;;;;;;;;;;5034123;28;20442;-92
2021/12/04 01:41:14;;;;;;;1.00;0.90;;;;;;;;;;5032155;28;20438;-92
2021/12/04 01:43:40;;;;;;;1.77;1.67;;;;;;;;;;5032345;28;20502;-92
2021/12/04 01:46:06;;;;;;;1.53;1.43;;;;;;;;;;5031419;28;20461;-92
2021/12/04 01:48:32;;;;;;;0.80;0.80;;;;;;;;;;5031907;28;20829;-92
2021/12/04 01:50:58;;;;;;;1.13;1.03;;;;;;;;;;5033365;28;20871;-91
2021/12/04 01:53:25;;;;;;;2.57;2.37;;;;;;;;;;5032894;28;20470;-92
2021/12/04 01:55:51;;;;;;;0.83;0.80;;;;;;;;;;5015564;28;20460;-92
2021/12/04 01:58:18;;;;;;;0.90;0.80;;;;;;;;;;5033310;28;20518;-92
2021/12/04 02:00:43;;;;;;;1.10;1.00;;;;;;;;;;5015170;28;20524;-92
2021/12/04 02:03:13;;;;;;;1.00;0.90;;;;;;;;;;5032609;28;20513;-93
2021/12/04 02:05:39;;;;;;;2.70;2.50;;;;;;;;;;5033053;28;20479;-92
2021/12/04 02:08:06;;;;;;;0.87;0.70;;;;;;;;;;5030319;28;20442;-91
2021/12/04 02:10:32;;;;;;;1.33;1.23;;;;;;;;;;5024870;28;20445;-94
2021/12/04 02:12:57;;;;;;;0.93;0.83;;;;;;;;;;5031368;28;20976;-93
2021/12/04 02:15:24;;;;;;;2.10;1.40;;;;;;;;;;5032817;28;20441;-92
2021/12/04 02:17:49;;;;;;;1.30;1.23;;;;;;;;;;5032843;28;20449;-93
2021/12/04 02:20:27;;;;;;;3.13;2.93;;;;;;;;;;5031213;28;20568;-92
2021/12/04 02:22:54;;;;;;;0.90;0.80;;;;;;;;;;5014870;28;20438;-92
2021/12/04 02:25:20;;;;;;;1.40;1.10;;;;;;;;;;5031351;28;20438;-92
2021/12/04 02:27:47;;;;;;;0.80;0.70;;;;;;;;;;5014137;28;21135;-92
2021/12/04 02:30:15;;;;;;;3.33;3.03;;;;;;;;;;5014467;28;20543;-91
2021/12/04 02:32:42;;;;;;;1.53;1.43;;;;;;;;;;5032383;28;20552;-91
2021/12/04 02:35:09;;;;;;;1.73;1.63;;;;;;;;;;5042723;28;20881;-92
2021/12/04 02:37:36;;;;;;;0.97;0.90;;;;;;;;;;5042163;28;20453;-92
2021/12/04 02:40:02;;;;;;;2.97;1.90;;;;;;;;;;5030083;28;20422;-92
2021/12/04 02:42:30;;;;;;;2.93;1.23;;;;;;;;;;5029800;28;20512;-92
2021/12/04 02:44:57;;;;;;;2.17;1.97;;;;;;;;;;5013283;28;20426;-92
2021/12/04 02:47:23;;;;;;;1.43;1.33;;;;;;;;;;5031578;28;20828;-92
2021/12/04 02:49:49;;;;;;;1.37;1.27;;;;;;;;;;5015226;28;20478;-92
2021/12/04 02:52:15;;;;;;;0.80;0.70;;;;;;;;;;5015395;28;20422;-91
2021/12/04 02:54:41;;;;;;;0.80;0.80;;;;;;;;;;5014858;28;20450;-92
2021/12/04 02:57:09;;;;;;;1.63;1.53;;;;;;;;;;5014435;28;20806;-91
2021/12/04 02:59:37;;;;;;;1.83;1.57;;;;;;;;;;5027255;28;20473;-92
2021/12/04 03:02:04;;;;;;;0.80;0.80;;;;;;;;;;5011115;28;20470;-91
2021/12/04 03:04:32;;;;;;;0.80;0.70;;;;;;;;;;5029891;28;20438;-92
2021/12/04 03:06:58;;;;;;;3.00;2.80;;;;;;;;;;5030504;28;20526;-90
2021/12/04 03:09:24;;;;;;;0.80;0.70;;;;;;;;;;5029843;28;20576;-93
2021/12/04 03:11:50;;;;;;;1.27;1.17;;;;;;;;;;5012351;28;20804;-91
2021/12/04 03:14:17;;;;;;;0.83;0.77;;;;;;;;;;5028531;28;20470;-91
2021/12/04 03:16:43;;;;;;;0.80;0.70;;;;;;;;;;5031811;28;20521;-91
2021/12/04 03:19:09;;;;;;;0.90;0.80;;;;;;;;;;5030379;28;20507;-92
2021/12/04 03:21:37;;;;;;;0.80;0.70;;;;;;;;;;5032031;28;20495;-91
2021/12/04 03:24:05;;;;;;;0.83;0.83;;;;;;;;;;5004896;28;20431;-92
2021/12/04 03:26:32;;;;;;;2.60;2.40;;;;;;;;;;5032116;28;20426;-93
2021/12/04 03:29:01;;;;;;;0.80;0.80;;;;;;;;;;5032092;28;20473;-93
2021/12/04 03:42:10;;;;;;;2.60;2.40;;;;;;;;;;5026656;28;20437;-93
2021/12/04 03:44:37;;;;;;;1.03;0.93;;;;;;;;;;5013925;28;20438;-91
2021/12/04 03:47:04;;;;;;;1.77;1.63;;;;;;;;;;5027383;28;20541;-91
2021/12/04 03:49:30;;;;;;;1.87;1.77;;;;;;;;;;5023077;28;20478;-91
2021/12/04 03:51:56;;;;;;;1.93;1.83;;;;;;;;;;5035493;28;20772;-92
2021/12/04 03:54:22;;;;;;;2.40;2.30;;;;;;;;;;5017521;28;20595;-92
2021/12/04 03:56:50;;;;;;;2.07;1.27;;;;;;;;;;5017495;28;20645;-91
2021/12/04 03:59:16;;;;;;;2.33;2.23;;;;;;;;;;5021487;28;20428;-91
2021/12/04 04:01:42;;;;;;;0.80;0.77;;;;;;;;;;5017807;28;20770;-92
2021/12/04 04:04:08;;;;;;;1.93;1.53;;;;;;;;;;5023138;28;20492;-92
2021/12/04 04:06:34;;;;;;;1.50;1.40;;;;;;;;;;5032505;28;20446;-91
2021/12/04 04:09:02;;;;;;;0.80;0.70;;;;;;;;;;5032238;28;20478;-92
2021/12/04 04:11:28;;;;;;;1.87;1.77;;;;;;;;;;5016690;28;20787;-91
2021/12/04 04:13:54;;;;;;;4.17;3.87;;;;;;;;;;5033470;28;20517;-92
2021/12/04 04:16:19;;;;;;;1.23;1.17;;;;;;;;;;5024554;28;21020;-92
2021/12/04 04:18:45;;;;;;;1.23;1.13;;;;;;;;;;5042393;28;20525;-92
2021/12/04 04:21:11;;;;;;;0.80;0.70;;;;;;;;;;5033528;28;20433;-92
2021/12/04 04:23:37;;;;;;;0.80;0.80;;;;;;;;;;5034634;28;20804;-92
2021/12/04 04:26:03;;;;;;;1.87;1.77;;;;;;;;;;5016697;28;20817;-92
2021/12/04 04:28:29;;;;;;;1.97;1.87;;;;;;;;;;5034447;28;20476;-91
2021/12/04 04:30:55;;;;;;;1.77;1.67;;;;;;;;;;5034548;28;20434;-91
2021/12/04 04:33:21;;;;;;;0.80;0.60;;;;;;;;;;5034671;28;20438;-91
2021/12/04 04:36:00;;;;;;;1.30;1.03;;;;;;;;;;5015721;28;20446;-92
2021/12/04 04:38:36;;;;;;;1.40;1.30;;;;;;;;;;5029980;28;20422;-92
2021/12/04 05:11:11;;;;;;;1.10;1.00;;;;;;;;;;5033843;28;20843;-92
2021/12/04 05:13:39;;;;;;;0.83;0.77;;;;;;;;;;5046695;28;20483;-92
2021/12/04 05:16:12;;;;;;;3.93;3.07;;;;;;;;;;5017598;28;20864;-92
2021/12/04 05:18:43;;;;;;;0.80;0.60;;;;;;;;;;5033793;28;20484;-91
2021/12/04 05:21:11;;;;;;;0.83;0.70;;;;;;;;;;5030108;28;21055;-91
2021/12/04 05:23:39;;;;;;;1.30;1.20;;;;;;;;;;5023806;28;20472;-92
2021/12/04 05:26:06;;;;;;;2.30;2.20;;;;;;;;;;5027560;28;20434;-91
2021/12/04 05:28:32;;;;;;;2.00;1.90;;;;;;;;;;5032022;28;20493;-90
2021/12/04 05:30:58;;;;;;;1.20;0.73;;;;;;;;;;5032991;28;20931;-90
2021/12/04 05:33:24;;;;;;;1.17;1.07;;;;;;;;;;5028504;28;20523;-92
2021/12/04 05:35:51;;;;;;;0.80;0.73;;;;;;;;;;5032677;28;20568;-90
2021/12/04 05:38:17;;;;;;;7.13;1.33;;;;;;;;;;5015541;28;20427;-91
2021/12/04 05:40:44;;;;;;;0.80;0.70;;;;;;;;;;5033432;28;20437;-91
2021/12/04 05:43:11;;;;;;;0.80;0.70;;;;;;;;;;5032525;28;20809;-91
2021/12/04 05:45:52;;;;;;;0.80;0.70;;;;;;;;;;5030750;28;20441;-91
2021/12/04 05:48:44;;;;;;;2.83;2.63;;;;;;;;;;5032741;28;20449;-92
2021/12/04 05:51:22;;;;;;;0.80;0.77;;;;;;;;;;5021595;28;20957;-91
2021/12/04 05:56:18;;;;;;;1.00;0.90;;;;;;;;;;5033514;28;20442;-91
2021/12/04 05:58:44;;;;;;;0.80;0.70;;;;;;;;;;5031870;28;20450;-91
2021/12/04 06:01:10;;;;;;;0.80;0.80;;;;;;;;;;5026654;28;21115;-91
2021/12/04 06:03:36;;;;;;;1.07;0.97;;;;;;;;;;5013496;28;20426;-90
2021/12/04 06:06:03;;;;;;;2.43;1.93;;;;;;;;;;5032274;28;20433;-90
2021/12/04 06:08:29;;;;;;;0.80;0.70;;;;;;;;;;5031256;28;20469;-91
2021/12/04 06:10:55;;;;;;;0.90;0.80;;;;;;;;;;5031401;28;20808;-91
2021/12/04 06:13:22;;;;;;;2.60;2.00;;;;;;;;;;5022608;28;20438;-91
2021/12/04 06:15:48;;;;;;;0.80;0.80;;;;;;;;;;5030089;28;20468;-90
2021/12/04 06:18:15;;;;;;;0.80;0.60;;;;;;;;;;5028454;28;20922;-92
2021/12/04 06:23:27;;;;;;;1.07;0.80;;;;;;;;;;5028511;28;20817;-91
2021/12/04 06:25:53;;;;;;;1.10;1.00;;;;;;;;;;5031260;28;20476;-93
2021/12/04 06:28:19;;;;;;;0.80;0.70;;;;;;;;;;5017224;28;20870;-92
2021/12/04 06:30:45;;;;;;;0.87;0.80;;;;;;;;;;5026363;28;20450;-92
2021/12/04 06:33:15;;;;;;;1.23;1.13;;;;;;;;;;5031365;28;20479;-91
2021/12/04 06:35:41;;;;;;;0.80;0.70;;;;;;;;;;5032276;28;20442;-91
2021/12/04 06:38:09;;;;;;;0.80;0.70;;;;;;;;;;5031188;28;20434;-92
2021/12/04 06:40:35;;;;;;;0.80;0.80;;;;;;;;;;5032143;28;20430;-92
2021/12/04 06:43:01;;;;;;;1.87;1.77;;;;;;;;;;5032809;28;20433;-92
2021/12/04 06:45:29;;;;;;;7.53;1.93;;;;;;;;;;5030682;28;20544;-92
2021/12/04 06:48:05;;;;;;;0.80;0.70;;;;;;;;;;5031525;28;20474;-91
2021/12/04 06:53:07;;;;;;;0.90;0.90;;;;;;;;;;5029578;28;21011;-93
2021/12/04 06:55:39;;;;;;;1.77;1.67;;;;;;;;;;5024387;28;20434;-91
2021/12/04 06:58:05;;;;;;;0.80;0.80;;;;;;;;;;5031316;28;20430;-92
2021/12/04 07:00:31;;;;;;;0.80;0.70;;;;;;;;;;5013406;28;20493;-92
2021/12/04 07:02:57;;;;;;;0.80;0.80;;;;;;;;;;5031064;28;20438;-91
2021/12/04 07:05:23;;;;;;;0.80;0.70;;;;;;;;;;5032515;28;20431;-91
2021/12/04 07:07:49;;;;;;;7.23;1.33;;;;;;;;;;5013219;28;20449;-92
2021/12/04 07:10:15;;;;;;;0.80;0.80;;;;;;;;;;5032670;28;20524;-92
2021/12/04 07:12:41;;;;;;;0.80;0.60;;;;;;;;;;5031654;28;20954;-92
2021/12/04 07:15:08;;;;;;;1.10;1.00;;;;;;;;;;5014931;28;20507;-91
2021/12/04 07:17:35;;;;;;;1.20;1.10;;;;;;;;;;5014161;28;20750;-91
2021/12/04 07:20:01;;;;;;;0.80;0.80;;;;;;;;;;5014501;28;20491;-91
2021/12/04 07:22:27;;;;;;;1.63;1.47;;;;;;;;;;5030054;28;20439;-88
2021/12/04 07:24:53;;;;;;;1.47;1.37;;;;;;;;;;5031738;28;20526;-87
2021/12/04 07:27:19;;;;;;;0.80;0.70;;;;;;;;;;5013034;28;20443;-88
2021/12/04 07:29:45;;;;;;;0.80;0.70;;;;;;;;;;5032781;28;20493;-88
2021/12/04 07:32:11;;;;;;;4.43;2.80;;;;;;;;;;5031322;28;20426;-88
2021/12/04 07:34:37;;;;;;;0.80;0.80;;;;;;;;;;5013687;28;20449;-88
2021/12/04 07:37:03;;;;;;;1.10;0.97;;;;;;;;;;5015031;28;20492;-88
2021/12/04 07:39:29;;;;;;;1.00;0.90;;;;;;;;;;5018868;28;20449;-88
2021/12/04 07:41:55;;;;;;;0.80;0.70;;;;;;;;;;5031508;28;20464;-88
2021/12/04 07:44:21;;;;;;;0.80;0.80;;;;;;;;;;5012023;28;20820;-86
2021/12/04 07:46:47;;;;;;;0.80;0.70;;;;;;;;;;5030556;28;20473;-86
2021/12/04 07:49:13;;;;;;;1.90;1.80;;;;;;;;;;5013085;28;20517;-87
2021/12/04 07:51:39;;;;;;;0.80;0.70;;;;;;;;;;5031577;28;20449;-86
2021/12/04 07:54:05;;;;;;;0.80;0.60;;;;;;;;;;5032301;28;20469;-87
2021/12/04 07:56:31;;;;;;;1.10;1.00;;;;;;;;;;5031565;28;20422;-87
2021/12/04 07:58:58;;;;;;;1.67;1.33;;;;;;;;;;5028416;28;21237;-87
2021/12/04 08:01:24;;;;;;;0.80;0.80;;;;;;;;;;5013614;28;20809;-87
2021/12/04 08:03:50;;;;;;;0.90;0.90;;;;;;;;;;5011433;28;20507;-87
2021/12/04 08:06:16;;;;;;;1.10;1.00;;;;;;;;;;5031024;28;20425;-87
2021/12/04 08:08:43;;;;;;;0.80;0.70;;;;;;;;;;5032048;28;20966;-87
2021/12/04 08:11:09;;;;;;;1.50;1.40;;;;;;;;;;5030931;28;20498;-86
2021/12/04 08:13:35;;;;;;;1.00;0.90;;;;;;;;;;5025936;28;20945;-87
2021/12/04 08:16:00;;;;;;;0.80;0.67;;;;;;;;;;5026786;28;20949;-87
2021/12/04 08:18:27;;;;;;;0.80;0.63;;;;;;;;;;5027404;28;20462;-94
2021/12/04 08:20:53;;;;;;;2.43;2.33;;;;;;;;;;5017095;28;20536;-90
2021/12/04 08:23:19;;;;;;;1.87;1.77;;;;;;;;;;5026880;28;20521;-90
2021/12/04 08:25:46;;;;;;;1.10;1.00;;;;;;;;;;5034592;28;20425;-89
2021/12/04 08:28:12;;;;;;;1.40;1.30;;;;;;;;;;5019279;28;20437;-90
2021/12/04 08:30:40;;;;;;;0.80;0.60;;;;;;;;;;5027214;28;20465;-90
2021/12/04 08:33:07;;;;;;;0.80;0.63;;;;;;;;;;5033012;28;20460;-92
2021/12/04 08:35:39;;;;;;;1.57;1.47;;;;;;;;;;5024694;28;20437;-92
2021/12/04 08:38:05;;;;;;;1.73;1.53;;;;;;;;;;5037361;28;20441;-91
2021/12/04 08:40:32;;;;;;;0.80;0.70;;;;;;;;;;5033248;28;20466;-92
2021/12/04 08:42:58;;;;;;;0.90;0.80;;;;;;;;;;5040578;28;20444;-89
2021/12/04 08:45:25;;;;;;;0.90;0.80;;;;;;;;;;5012666;28;20936;-91
2021/12/04 08:47:51;;;;;;;1.27;1.17;;;;;;;;;;5012902;28;20473;-92
2021/12/04 08:50:18;;;;;;;0.90;0.73;;;;;;;;;;5011931;28;20528;-92
2021/12/04 08:52:44;;;;;;;0.80;0.80;;;;;;;;;;5013983;28;20453;-91
2021/12/04 08:55:11;;;;;;;0.90;0.80;;;;;;;;;;5033081;28;20438;-91
2021/12/04 08:57:38;;;;;;;0.80;0.80;;;;;;;;;;5012546;28;20454;-92
2021/12/04 09:00:08;;;;;;;3.73;1.47;;;;;;;;;;5021957;28;20442;-92
2021/12/04 09:02:35;;;;;;;0.80;0.80;;;;;;;;;;5032124;28;20976;-90
2021/12/04 09:05:01;;;;;;;0.80;0.70;;;;;;;;;;5029945;28;20457;-91
2021/12/04 09:07:26;;;;;;;0.80;0.70;;;;;;;;;;5032875;28;20442;-91
2021/12/04 09:09:55;;;;;;;0.80;0.73;;;;;;;;;;5032933;28;21134;-92
2021/12/04 09:12:22;;;;;;;0.80;0.60;;;;;;;;;;5015922;28;20441;-92
2021/12/04 09:14:49;;;;;;;0.80;0.70;;;;;;;;;;5034069;28;20458;-91
2021/12/04 09:17:16;;;;;;;0.80;0.80;;;;;;;;;;5033205;28;20438;-91
2021/12/04 09:19:43;;;;;;;1.83;1.70;;;;;;;;;;5033854;28;20454;-92
2021/12/04 09:22:16;;;;;;;0.90;0.80;;;;;;;;;;5032202;28;20521;-91
2021/12/04 09:24:44;;;;;;;4.60;2.10;;;;;;;;;;5024398;28;20470;-91
2021/12/04 09:30:17;;;;;;;1.40;1.30;;;;;;;;;;5030151;28;20490;-91
2021/12/04 10:00:09;;;;;;;0.80;0.70;;;;;;;;;;5025886;28;20960;-87
2021/12/04 10:05:44;;;;;;;1.90;1.57;;;;;;;;;;5027095;28;20442;-86
2021/12/04 10:13:54;;;;;;;0.80;0.80;;;;;;;;;;5025925;28;20496;-85
2021/12/04 10:19:18;;;;;;;0.80;0.70;;;;;;;;;;5026649;28;20491;-86
2021/12/04 10:32:39;;;;;;;0.80;0.77;;;;;;;;;;5027745;28;20481;-86
2021/12/04 10:35:08;;;;;;;0.80;0.77;;;;;;;;;;5030241;28;20467;-86
2021/12/04 10:37:37;;;;;;;0.80;0.77;;;;;;;;;;5010045;28;20746;-86
2021/12/04 10:40:05;;;;;;;1.40;1.30;;;;;;;;;;5026958;28;20976;-86
2021/12/04 10:42:44;;;;;;;0.80;0.80;;;;;;;;;;5028568;28;20517;-86
2021/12/04 10:45:10;;;;;;;3.20;2.90;;;;;;;;;;5005253;28;20462;-86
2021/12/04 10:47:36;;;;;;;2.40;2.20;;;;;;;;;;5027258;28;20973;-86
2021/12/04 10:52:56;;;;;;;0.90;0.90;;;;;;;;;;5027286;28;20478;-85
2021/12/04 10:55:43;;;;;;;1.57;1.47;;;;;;;;;;5011176;28;20512;-85
2021/12/04 11:00:57;;;;;;;0.80;0.63;;;;;;;;;;5027576;28;20495;-86
2021/12/04 11:07:02;;;;;;;1.57;1.47;;;;;;;;;;5025357;28;20453;-85
2021/12/04 11:21:08;;;;;;;1.67;1.43;;;;;;;;;;5025393;28;20485;-85
2021/12/04 11:37:19;;;;;;;1.27;1.17;;;;;;;;;;5024930;28;20471;-88
2021/12/04 11:45:20;;;;;;;16.23;3.10;;;;;;;;;;5022848;28;20448;-87
2021/12/04 11:47:49;;;;;;;3.33;1.97;;;;;;;;;;5027739;28;20476;-89
2021/12/04 11:50:22;;;;;;;0.80;0.70;;;;;;;;;;5003548;28;20490;-89
2021/12/04 11:52:48;;;;;;;1.93;1.27;;;;;;;;;;5025747;28;20926;-89
2021/12/04 11:55:18;;;;;;;0.80;0.70;;;;;;;;;;5023678;28;20795;-88
2021/12/04 11:57:45;;;;;;;1.57;1.10;;;;;;;;;;5009982;28;20445;-87
2021/12/04 12:00:24;;;;;;;0.80;0.70;;;;;;;;;;5009641;28;20496;-87
2021/12/04 12:02:53;;;;;;;0.80;0.80;;;;;;;;;;5008662;28;20434;-88
2021/12/04 12:05:20;;;;;;;0.90;0.80;;;;;;;;;;5024493;28;20488;-89
2021/12/04 12:07:54;;;;;;;1.40;1.30;;;;;;;;;;5010784;28;20431;-89
2021/12/04 12:10:21;;;;;;;0.80;0.70;;;;;;;;;;5030089;28;20528;-88
2021/12/04 12:12:47;;;;;;;1.30;1.20;;;;;;;;;;5029582;28;20442;-89
2021/12/04 12:15:19;;;;;;;0.90;0.80;;;;;;;;;;5029093;28;20450;-91
2021/12/04 12:17:45;;;;;;;0.80;0.70;;;;;;;;;;5017181;28;20426;-88
2021/12/04 12:20:17;;;;;;;0.80;0.70;;;;;;;;;;5014652;28;20961;-88
2021/12/04 12:22:52;;;;;;;3.13;1.57;;;;;;;;;;5031137;28;20938;-88
2021/12/04 12:34:01;;;;;;;4.47;1.27;;;;;;;;;;5030009;28;20437;-88
2021/12/04 12:36:29;;;;;;;2.13;1.87;;;;;;;;;;5033397;28;20432;-88
2021/12/04 12:38:55;;;;;;;2.70;1.63;;;;;;;;;;5029883;28;20501;-88
2021/12/04 12:41:24;;;;;;;2.07;1.53;;;;;;;;;;5013863;28;20503;-89
2021/12/04 12:43:59;;;;;;;0.80;0.80;;;;;;;;;;5029823;28;20933;-89
2021/12/04 12:46:44;;;;;;;1.47;1.37;;;;;;;;;;5031372;28;20527;-88
2021/12/04 12:49:28;;;;;;;0.80;0.70;;;;;;;;;;5030383;28;20469;-89
2021/12/04 12:51:59;;;;;;;1.30;1.20;;;;;;;;;;5030336;28;20433;-89
2021/12/04 12:54:43;;;;;;;1.00;0.90;;;;;;;;;;5028142;28;20438;-88
2021/12/04 12:57:19;;;;;;;2.63;2.47;;;;;;;;;;5029594;28;20442;-89
2021/12/04 13:13:41;;;;;;;3.97;3.77;;;;;;;;;;5029555;28;20448;-89
2021/12/04 13:16:14;;;;;;;1.00;0.90;;;;;;;;;;5030355;28;20445;-88
2021/12/04 13:18:41;;;;;;;1.00;0.90;;;;;;;;;;5029082;28;20946;-89
2021/12/04 13:21:08;;;;;;;0.90;0.80;;;;;;;;;;5013578;28;21312;-89
2021/12/04 13:23:35;;;;;;;2.87;1.47;;;;;;;;;;5013380;28;20427;-88
2021/12/04 13:26:03;;;;;;;2.13;2.03;;;;;;;;;;5030507;28;20435;-89
2021/12/04 13:28:31;;;;;;;1.63;1.53;;;;;;;;;;5014474;28;20422;-88
2021/12/04 13:31:00;;;;;;;0.80;0.80;;;;;;;;;;5017385;28;20430;-89
2021/12/04 13:33:26;;;;;;;1.90;1.80;;;;;;;;;;5012317;28;20969;-89
2021/12/04 13:35:52;;;;;;;1.10;1.00;;;;;;;;;;5029993;28;20496;-88
2021/12/04 13:38:20;;;;;;;0.80;0.70;;;;;;;;;;5013096;28;20492;-88
2021/12/04 13:40:49;;;;;;;1.20;1.10;;;;;;;;;;5031132;28;20426;-88
2021/12/04 13:43:16;;;;;;;0.97;0.90;;;;;;;;;;5012809;28;20437;-87
2021/12/04 13:45:42;;;;;;;0.80;0.73;;;;;;;;;;5028701;28;20443;-89
2021/12/04 13:48:09;;;;;;;0.90;0.80;;;;;;;;;;5012428;28;20500;-90
2021/12/04 13:53:04;;;;;;;0.80;0.80;;;;;;;;;;5026515;28;20493;-89
2021/12/04 13:55:34;;;;;;;0.90;0.80;;;;;;;;;;5030181;28;20438;-88
2021/12/04 13:58:02;;;;;;;1.20;1.10;;;;;;;;;;5007286;28;20446;-88
2021/12/04 14:00:28;;;;;;;1.00;0.90;;;;;;;;;;5028887;28;20536;-88
2021/12/04 14:02:54;;;;;;;1.63;1.00;;;;;;;;;;5012620;28;20858;-88
2021/12/04 14:05:21;;;;;;;4.90;2.03;;;;;;;;;;5011978;28;20845;-88
2021/12/04 14:07:48;;;;;;;0.90;0.80;;;;;;;;;;5027736;28;20430;-89
2021/12/04 14:10:16;;;;;;;3.30;3.13;;;;;;;;;;5028491;28;20486;-88
2021/12/04 14:12:42;;;;;;;1.53;1.43;;;;;;;;;;5011851;28;20441;-88
2021/12/04 14:15:09;;;;;;;0.90;0.80;;;;;;;;;;5010938;28;20450;-87
2021/12/04 14:17:35;;;;;;;2.40;0.93;;;;;;;;;;5026802;28;20442;-87
2021/12/04 14:20:01;;;;;;;0.90;0.80;;;;;;;;;;5011058;28;20450;-87
2021/12/04 14:22:27;;;;;;;1.20;1.10;;;;;;;;;;5031383;28;20536;-87
2021/12/04 14:24:57;;;;;;;0.80;0.60;;;;;;;;;;5012333;28;20798;-88
2021/12/04 14:27:28;;;;;;;0.83;0.70;;;;;;;;;;5030625;28;20445;-88
2021/12/04 14:29:56;;;;;;;1.17;1.07;;;;;;;;;;5027827;28;20528;-88
2021/12/04 14:32:23;;;;;;;0.80;0.70;;;;;;;;;;5028314;28;20431;-88
2021/12/04 14:34:54;;;;;;;0.80;0.70;;;;;;;;;;5029390;28;20446;-88
2021/12/04 14:37:20;;;;;;;1.23;1.10;;;;;;;;;;5011299;28;21068;-88
2021/12/04 14:39:47;;;;;;;1.77;1.33;;;;;;;;;;5011726;28;20480;-86
2021/12/04 14:42:20;;;;;;;0.83;0.77;;;;;;;;;;5011433;28;20430;-87
2021/12/04 14:44:54;;;;;;;0.90;0.80;;;;;;;;;;5028979;28;20431;-88
2021/12/04 14:47:21;;;;;;;1.27;1.17;;;;;;;;;;5010226;28;20568;-87
2021/12/04 14:49:49;;;;;;;1.10;1.00;;;;;;;;;;5027399;28;20477;-87
2021/12/04 14:52:20;;;;;;;1.27;1.20;;;;;;;;;;5011319;28;20434;-89
2021/12/04 14:54:46;;;;;;;0.80;0.80;;;;;;;;;;5028320;28;20462;-88
2021/12/04 14:57:16;;;;;;;0.80;0.80;;;;;;;;;;5029069;28;20429;-88
2021/12/04 14:59:42;;;;;;;2.30;1.97;;;;;;;;;;5028358;28;20454;-87
2021/12/04 15:02:16;;;;;;;0.80;0.70;;;;;;;;;;5028625;28;21113;-88
2021/12/04 15:04:43;;;;;;;1.27;1.00;;;;;;;;;;5021671;28;20434;-87
2021/12/04 15:07:26;;;;;;;0.80;0.80;;;;;;;;;;5009331;28;21167;-87
2021/12/04 15:09:53;;;;;;;0.90;0.80;;;;;;;;;;5011180;28;20473;-87
2021/12/04 15:12:26;;;;;;;1.50;0.90;;;;;;;;;;5028651;28;20445;-87
2021/12/04 15:14:56;;;;;;;0.80;0.80;;;;;;;;;;5009110;28;20425;-88
2021/12/04 15:17:23;;;;;;;1.13;1.03;;;;;;;;;;5007030;28;20430;-87
2021/12/04 15:19:53;;;;;;;0.80;0.80;;;;;;;;;;5022989;28;20450;-86
2021/12/04 15:22:23;;;;;;;1.43;1.33;;;;;;;;;;5020867;28;20985;-85
2021/12/04 15:24:49;;;;;;;0.80;0.70;;;;;;;;;;5020590;28;20966;-88
2021/12/04 15:27:18;;;;;;;0.80;0.70;;;;;;;;;;5011440;28;20445;-87
2021/12/04 15:29:48;;;;;;;1.00;0.90;;;;;;;;;;5001242;28;20526;-87
2021/12/04 15:32:15;;;;;;;1.07;0.97;;;;;;;;;;5012742;28;20470;-88
2021/12/04 15:34:47;;;;;;;0.80;0.70;;;;;;;;;;5002519;28;21056;-87
2021/12/04 15:37:13;;;;;;;1.63;1.47;;;;;;;;;;5014672;28;20940;-88
2021/12/04 15:39:44;;;;;;;0.80;0.70;;;;;;;;;;5024896;28;20588;-87
2021/12/04 15:42:24;;;;;;;1.27;1.17;;;;;;;;;;5010686;28;20434;-88
2021/12/04 15:47:49;;;;;;;0.80;0.80;;;;;;;;;;5010875;28;20458;-91
2021/12/04 15:53:08;;;;;;;1.10;1.00;;;;;;;;;;5030237;28;20448;-91
2021/12/04 15:55:39;;;;;;;0.90;0.80;;;;;;;;;;5031000;28;20445;-90
2021/12/04 15:58:07;;;;;;;3.20;2.40;;;;;;;;;;5019165;28;20464;-93
2021/12/04 16:00:34;;;;;;;0.90;0.80;;;;;;;;;;5028601;28;20437;-93
2021/12/04 16:03:01;;;;;;;6.43;1.87;;;;;;;;;;5019420;28;20434;-92
2021/12/04 16:05:28;;;;;;;2.10;2.00;;;;;;;;;;5017857;28;20481;-91
2021/12/04 16:08:07;;;;;;;0.90;0.80;;;;;;;;;;5020157;28;20426;-92
2021/12/04 16:10:34;;;;;;;0.90;0.80;;;;;;;;;;5021000;28;20485;-91
2021/12/04 16:13:00;;;;;;;0.90;0.80;;;;;;;;;;5026788;28;20948;-91
2021/12/04 16:15:27;;;;;;;0.90;0.80;;;;;;;;;;5047971;28;20421;-92
2021/12/04 16:17:53;;;;;;;0.80;0.70;;;;;;;;;;5055033;28;20450;-92
2021/12/04 16:20:21;;;;;;;0.90;0.80;;;;;;;;;;5038467;28;20415;-92
2021/12/04 16:22:49;;;;;;;4.10;1.77;;;;;;;;;;5040889;28;20476;-92
2021/12/04 16:25:22;;;;;;;0.80;0.70;;;;;;;;;;5035061;28;20434;-90
2021/12/04 16:27:58;;;;;;;1.60;1.50;;;;;;;;;;5011665;28;20793;-90
2021/12/04 16:30:36;;;;;;;0.90;0.80;;;;;;;;;;5034929;28;20476;-91
2021/12/04 16:37:57;;;;;;;1.10;1.00;;;;;;;;;;5035045;28;20422;-90
2021/12/04 16:40:33;;;;;;;1.20;1.10;;;;;;;;;;5016369;28;20442;-90
2021/12/04 16:43:12;;;;;;;2.73;1.40;;;;;;;;;;5016392;28;20426;-90
2021/12/04 16:45:40;;;;;;;1.30;1.20;;;;;;;;;;5005597;28;20492;-90
2021/12/04 16:48:11;;;;;;;0.80;0.70;;;;;;;;;;5033321;28;20585;-90
2021/12/04 16:54:51;;;;;;;0.80;0.80;;;;;;;;;;5031821;28;20583;-89
2021/12/04 16:58:45;;;;;;;2.80;2.60;;;;;;;;;;5026862;28;20447;-87
2021/12/04 17:01:11;;;;;;;1.10;1.00;;;;;;;;;;5013419;28;21015;-89
2021/12/04 17:03:37;;;;;;;1.60;1.50;;;;;;;;;;5014840;28;20437;-90
2021/12/04 17:06:04;;;;;;;0.80;0.70;;;;;;;;;;5032584;28;20438;-94
2021/12/04 17:08:36;;;;;;;0.97;0.87;;;;;;;;;;5021936;28;20430;-94
2021/12/04 17:11:03;;;;;;;3.13;2.93;;;;;;;;;;5035158;28;20458;-96
2021/12/04 17:13:29;;;;;;;1.10;1.00;;;;;;;;;;5032351;28;20449;-96
2021/12/04 17:15:57;;;;;;;0.90;0.77;;;;;;;;;;5036026;28;20430;-96
2021/12/04 17:18:25;;;;;;;0.87;0.80;;;;;;;;;;5040440;28;20418;-96
2021/12/04 17:20:52;;;;;;;0.90;0.80;;;;;;;;;;5028823;28;20425;-96
2021/12/04 17:23:19;;;;;;;1.83;1.73;;;;;;;;;;5028813;28;20421;-96
2021/12/04 17:25:45;;;;;;;0.80;0.80;;;;;;;;;;5029871;28;20411;-96
2021/12/04 17:28:13;;;;;;;3.03;2.80;;;;;;;;;;5051904;28;20414;-96
2021/12/04 17:30:39;;;;;;;0.80;0.60;;;;;;;;;;5029648;28;20462;-96
2021/12/04 17:33:06;;;;;;;1.47;1.37;;;;;;;;;;5056230;28;20458;-96
2021/12/04 17:35:38;;;;;;;0.90;0.80;;;;;;;;;;5038566;28;20445;-96
2021/12/04 17:38:05;;;;;;;0.80;0.70;;;;;;;;;;5044843;28;20434;-96
2021/12/04 17:42:59;;;;;;;2.23;2.10;;;;;;;;;;5039147;28;20495;-95
2021/12/04 17:45:33;;;;;;;1.27;1.17;;;;;;;;;;5023051;28;20456;-94
2021/12/04 17:48:05;;;;;;;0.80;0.70;;;;;;;;;;5036684;28;20462;-94
2021/12/04 17:50:36;;;;;;;1.00;0.90;;;;;;;;;;5035172;28;20494;-96
2021/12/04 17:55:33;;;;;;;0.80;0.70;;;;;;;;;;5058136;28;20524;-95
2021/12/04 17:58:00;;;;;;;1.40;1.17;;;;;;;;;;5053129;28;20504;-94
2021/12/04 18:00:28;;;;;;;1.30;1.20;;;;;;;;;;5068600;28;20405;-94
2021/12/04 18:02:55;;;;;;;1.10;1.00;;;;;;;;;;5054612;28;20422;-95
2021/12/04 18:05:25;;;;;;;1.20;1.10;;;;;;;;;;5050162;28;20967;-94
2021/12/04 18:07:52;;;;;;;0.90;0.80;;;;;;;;;;5040894;28;20438;-92